sensor_id;sensor_type;location;lat;lon;timestamp;pressure;altitude;pressure_sealevel;temperature;humidity
79004;BME280;77021;51.052;17.034;2024-03-29T00:00:26;98691.62;;;7.50;66.16
79004;BME280;77021;51.052;17.034;2024-03-29T00:03:32;98693.36;;;7.49;66.24
79004;BME280;77021;51.052;17.034;2024-03-29T00:06:19;98703.47;;;7.53;66.16
79004;BME280;77021;51.052;17.034;2024-03-29T00:12:45;98715.85;;;7.52;65.89
79004;BME280;77021;51.052;17.034;2024-03-29T00:15:32;98715.52;;;7.49;66.04
79004;BME280;77021;51.052;17.034;2024-03-29T00:18:19;98728.69;;;7.47;65.86
79004;BME280;77021;51.052;17.034;2024-03-29T00:21:05;98731.55;;;7.42;65.99
79004;BME280;77021;51.052;17.034;2024-03-29T00:23:51;98734.02;;;7.41;66.18
79004;BME280;77021;51.052;17.034;2024-03-29T00:26:38;98743.55;;;7.42;66.09
79004;BME280;77021;51.052;17.034;2024-03-29T00:29:30;98750.69;;;7.46;65.92
79004;BME280;77021;51.052;17.034;2024-03-29T00:32:16;98757.04;;;7.47;65.94
79004;BME280;77021;51.052;17.034;2024-03-29T00:35:03;98762.67;;;7.46;65.69
79004;BME280;77021;51.052;17.034;2024-03-29T00:37:49;98775.14;;;7.44;65.61
79004;BME280;77021;51.052;17.034;2024-03-29T00:40:36;98781.30;;;7.43;65.73
79004;BME280;77021;51.052;17.034;2024-03-29T00:43:22;98790.75;;;7.42;65.58
79004;BME280;77021;51.052;17.034;2024-03-29T00:46:09;98792.11;;;7.39;65.61
79004;BME280;77021;51.052;17.034;2024-03-29T00:52:01;98809.59;;;7.41;65.66
79004;BME280;77021;51.052;17.034;2024-03-29T00:54:50;98813.36;;;7.39;65.56
79004;BME280;77021;51.052;17.034;2024-03-29T00:57:36;98825.02;;;7.39;65.76
79004;BME280;77021;51.052;17.034;2024-03-29T01:00:22;98832.00;;;7.39;65.70
79004;BME280;77021;51.052;17.034;2024-03-29T01:03:09;98840.55;;;7.38;65.64
79004;BME280;77021;51.052;17.034;2024-03-29T01:05:55;98843.30;;;7.39;65.70
79004;BME280;77021;51.052;17.034;2024-03-29T01:08:41;98847.91;;;7.44;65.80
79004;BME280;77021;51.052;17.034;2024-03-29T01:11:28;98852.52;;;7.42;65.69
79004;BME280;77021;51.052;17.034;2024-03-29T01:14:14;98858.35;;;7.41;65.71
79004;BME280;77021;51.052;17.034;2024-03-29T01:17:01;98861.43;;;7.42;65.97
79004;BME280;77021;51.052;17.034;2024-03-29T01:19:48;98863.58;;;7.44;66.08
79004;BME280;77021;51.052;17.034;2024-03-29T01:22:35;98865.67;;;7.44;65.74
79004;BME280;77021;51.052;17.034;2024-03-29T01:25:21;98872.64;;;7.44;65.64
79004;BME280;77021;51.052;17.034;2024-03-29T01:28:08;98873.52;;;7.41;65.82
79004;BME280;77021;51.052;17.034;2024-03-29T01:30:55;98874.46;;;7.36;65.76
79004;BME280;77021;51.052;17.034;2024-03-29T01:33:41;98871.35;;;7.36;65.36
79004;BME280;77021;51.052;17.034;2024-03-29T01:36:27;98878.39;;;7.37;65.57
79004;BME280;77021;51.052;17.034;2024-03-29T01:39:13;98879.88;;;7.39;65.77
79004;BME280;77021;51.052;17.034;2024-03-29T01:46:23;98872.64;;;7.41;65.18
79004;BME280;77021;51.052;17.034;2024-03-29T01:49:09;98872.81;;;7.41;65.36
79004;BME280;77021;51.052;17.034;2024-03-29T01:51:57;98872.66;;;7.40;65.28
79004;BME280;77021;51.052;17.034;2024-03-29T01:54:44;98876.72;;;7.39;65.33
79004;BME280;77021;51.052;17.034;2024-03-29T01:57:31;98880.73;;;7.39;64.93
79004;BME280;77021;51.052;17.034;2024-03-29T02:00:18;98880.67;;;7.40;65.07
79004;BME280;77021;51.052;17.034;2024-03-29T02:03:05;98879.40;;;7.38;64.89
79004;BME280;77021;51.052;17.034;2024-03-29T02:05:57;98880.48;;;7.37;65.21
79004;BME280;77021;51.052;17.034;2024-03-29T02:08:49;98870.77;;;7.33;64.84
79004;BME280;77021;51.052;17.034;2024-03-29T02:11:39;98879.66;;;7.33;65.28
79004;BME280;77021;51.052;17.034;2024-03-29T02:14:25;98874.57;;;7.20;65.79
79004;BME280;77021;51.052;17.034;2024-03-29T02:17:12;98876.52;;;6.96;65.94
79004;BME280;77021;51.052;17.034;2024-03-29T02:19:58;98879.88;;;6.70;66.45
79004;BME280;77021;51.052;17.034;2024-03-29T02:22:58;98879.26;;;6.48;66.96
79004;BME280;77021;51.052;17.034;2024-03-29T02:25:50;98882.34;;;6.31;68.12
79004;BME280;77021;51.052;17.034;2024-03-29T02:29:05;98890.55;;;6.22;68.32
79004;BME280;77021;51.052;17.034;2024-03-29T02:31:53;98898.64;;;6.17;69.32
79004;BME280;77021;51.052;17.034;2024-03-29T02:34:39;98908.06;;;6.16;69.54
79004;BME280;77021;51.052;17.034;2024-03-29T02:37:25;98911.11;;;6.14;69.54
79004;BME280;77021;51.052;17.034;2024-03-29T02:40:12;98916.13;;;6.11;70.12
79004;BME280;77021;51.052;17.034;2024-03-29T02:42:58;98917.74;;;6.09;70.22
79004;BME280;77021;51.052;17.034;2024-03-29T02:45:44;98919.67;;;6.13;70.52
79004;BME280;77021;51.052;17.034;2024-03-29T02:48:30;98924.30;;;6.18;70.30
79004;BME280;77021;51.052;17.034;2024-03-29T02:51:17;98920.14;;;6.21;69.96
79004;BME280;77021;51.052;17.034;2024-03-29T02:54:03;98924.15;;;6.25;70.12
79004;BME280;77021;51.052;17.034;2024-03-29T02:56:49;98923.58;;;6.30;69.84
79004;BME280;77021;51.052;17.034;2024-03-29T02:59:40;98923.42;;;6.33;69.55
79004;BME280;77021;51.052;17.034;2024-03-29T03:02:32;98922.99;;;6.35;69.48
79004;BME280;77021;51.052;17.034;2024-03-29T03:05:18;98926.13;;;6.35;69.31
79004;BME280;77021;51.052;17.034;2024-03-29T03:08:07;98927.58;;;6.33;69.62
79004;BME280;77021;51.052;17.034;2024-03-29T03:11:12;98926.54;;;6.29;69.06
79004;BME280;77021;51.052;17.034;2024-03-29T03:23:02;98949.66;;;5.68;70.69
79004;BME280;77021;51.052;17.034;2024-03-29T03:25:56;98950.62;;;5.49;71.00
79004;BME280;77021;51.052;17.034;2024-03-29T03:28:43;98949.18;;;5.35;71.36
79004;BME280;77021;51.052;17.034;2024-03-29T03:31:29;98948.81;;;5.23;71.86
79004;BME280;77021;51.052;17.034;2024-03-29T03:34:19;98943.78;;;5.11;72.12
79004;BME280;77021;51.052;17.034;2024-03-29T03:37:05;98932.45;;;4.99;72.59
79004;BME280;77021;51.052;17.034;2024-03-29T03:39:51;98934.91;;;4.90;72.95
79004;BME280;77021;51.052;17.034;2024-03-29T03:42:38;98935.38;;;4.84;73.08
79004;BME280;77021;51.052;17.034;2024-03-29T03:45:24;98932.48;;;4.77;73.30
79004;BME280;77021;51.052;17.034;2024-03-29T03:48:11;98933.40;;;4.72;73.60
79004;BME280;77021;51.052;17.034;2024-03-29T03:50:57;98936.84;;;4.69;73.75
79004;BME280;77021;51.052;17.034;2024-03-29T03:53:43;98936.52;;;4.68;73.66
79004;BME280;77021;51.052;17.034;2024-03-29T03:56:30;98943.48;;;4.68;73.79
79004;BME280;77021;51.052;17.034;2024-03-29T03:59:16;98948.60;;;4.70;73.69
79004;BME280;77021;51.052;17.034;2024-03-29T04:02:02;98953.91;;;4.71;73.53
79004;BME280;77021;51.052;17.034;2024-03-29T04:14:11;98972.85;;;4.66;73.60
79004;BME280;77021;51.052;17.034;2024-03-29T04:16:58;98976.14;;;4.61;73.60
79004;BME280;77021;51.052;17.034;2024-03-29T04:19:44;98970.20;;;4.49;73.54
79004;BME280;77021;51.052;17.034;2024-03-29T04:22:31;98966.98;;;4.34;73.83
79004;BME280;77021;51.052;17.034;2024-03-29T04:25:18;98970.52;;;4.23;73.90
79004;BME280;77021;51.052;17.034;2024-03-29T04:32:47;98989.61;;;3.99;74.50
79004;BME280;77021;51.052;17.034;2024-03-29T04:35:33;98991.48;;;3.90;75.10
79004;BME280;77021;51.052;17.034;2024-03-29T04:38:20;98996.96;;;3.87;75.40
79004;BME280;77021;51.052;17.034;2024-03-29T04:41:07;98996.43;;;3.87;75.87
79004;BME280;77021;51.052;17.034;2024-03-29T04:43:53;99000.70;;;3.89;75.99
79004;BME280;77021;51.052;17.034;2024-03-29T04:46:39;99002.63;;;3.94;76.11
79004;BME280;77021;51.052;17.034;2024-03-29T04:49:31;99006.19;;;4.00;75.90
79004;BME280;77021;51.052;17.034;2024-03-29T04:52:22;99007.03;;;4.10;76.23
79004;BME280;77021;51.052;17.034;2024-03-29T04:55:10;99006.41;;;4.18;76.05
79004;BME280;77021;51.052;17.034;2024-03-29T04:57:56;99009.48;;;4.23;75.78
79004;BME280;77021;51.052;17.034;2024-03-29T05:00:43;99011.05;;;4.27;75.64
79004;BME280;77021;51.052;17.034;2024-03-29T05:03:30;99007.35;;;4.30;75.69
79004;BME280;77021;51.052;17.034;2024-03-29T05:06:16;99010.96;;;4.30;75.88
79004;BME280;77021;51.052;17.034;2024-03-29T05:09:02;99013.01;;;4.35;75.88
79004;BME280;77021;51.052;17.034;2024-03-29T05:11:48;99010.78;;;4.44;75.74
79004;BME280;77021;51.052;17.034;2024-03-29T05:14:35;99016.54;;;4.56;75.58
79004;BME280;77021;51.052;17.034;2024-03-29T05:17:21;99014.20;;;4.76;75.16
79004;BME280;77021;51.052;17.034;2024-03-29T05:20:14;99008.48;;;4.98;74.51
79004;BME280;77021;51.052;17.034;2024-03-29T05:23:00;99013.73;;;5.18;74.08
79004;BME280;77021;51.052;17.034;2024-03-29T05:25:46;99023.19;;;5.33;73.50
79004;BME280;77021;51.052;17.034;2024-03-29T05:28:35;99022.85;;;5.45;73.45
79004;BME280;77021;51.052;17.034;2024-03-29T05:31:21;99018.41;;;5.56;73.27
79004;BME280;77021;51.052;17.034;2024-03-29T05:34:07;99014.45;;;5.71;72.88
79004;BME280;77021;51.052;17.034;2024-03-29T05:37:19;99015.27;;;5.89;72.38
79004;BME280;77021;51.052;17.034;2024-03-29T05:40:06;99017.42;;;6.11;71.98
79004;BME280;77021;51.052;17.034;2024-03-29T05:42:54;99013.09;;;6.30;70.78
79004;BME280;77021;51.052;17.034;2024-03-29T05:45:40;99010.81;;;6.49;70.11
79004;BME280;77021;51.052;17.034;2024-03-29T05:48:28;99003.79;;;6.65;69.86
79004;BME280;77021;51.052;17.034;2024-03-29T05:51:18;99015.21;;;6.81;69.61
79004;BME280;77021;51.052;17.034;2024-03-29T05:54:04;99023.92;;;6.98;69.26
79004;BME280;77021;51.052;17.034;2024-03-29T05:56:50;99031.99;;;7.19;68.35
79004;BME280;77021;51.052;17.034;2024-03-29T05:59:36;99030.34;;;7.38;68.10
79004;BME280;77021;51.052;17.034;2024-03-29T06:02:26;99020.14;;;7.61;67.92
79004;BME280;77021;51.052;17.034;2024-03-29T06:05:12;99019.69;;;7.90;67.38
79004;BME280;77021;51.052;17.034;2024-03-29T06:07:59;99015.65;;;8.20;66.44
79004;BME280;77021;51.052;17.034;2024-03-29T06:10:45;99015.64;;;8.56;65.51
79004;BME280;77021;51.052;17.034;2024-03-29T06:13:31;99018.57;;;9.01;64.76
79004;BME280;77021;51.052;17.034;2024-03-29T06:16:36;99024.85;;;9.41;61.42
79004;BME280;77021;51.052;17.034;2024-03-29T06:19:41;99024.42;;;9.60;60.11
79004;BME280;77021;51.052;17.034;2024-03-29T06:22:27;99034.77;;;9.71;59.43
79004;BME280;77021;51.052;17.034;2024-03-29T06:25:18;99040.77;;;9.91;59.26
79004;BME280;77021;51.052;17.034;2024-03-29T06:28:05;99041.88;;;10.16;59.33
79004;BME280;77021;51.052;17.034;2024-03-29T06:30:51;99042.42;;;10.58;57.62
79004;BME280;77021;51.052;17.034;2024-03-29T06:33:37;99026.93;;;11.00;55.50
79004;BME280;77021;51.052;17.034;2024-03-29T06:36:27;99019.94;;;11.33;54.68
79004;BME280;77021;51.052;17.034;2024-03-29T06:39:13;99018.23;;;11.53;53.58
79004;BME280;77021;51.052;17.034;2024-03-29T06:42:00;99011.81;;;11.63;52.56
79004;BME280;77021;51.052;17.034;2024-03-29T06:44:46;99010.74;;;11.73;52.42
79004;BME280;77021;51.052;17.034;2024-03-29T06:47:32;99012.38;;;11.96;51.32
79004;BME280;77021;51.052;17.034;2024-03-29T06:50:19;99015.95;;;12.28;51.03
79004;BME280;77021;51.052;17.034;2024-03-29T06:53:05;99018.82;;;12.66;50.25
79004;BME280;77021;51.052;17.034;2024-03-29T06:55:54;99021.83;;;13.05;48.61
79004;BME280;77021;51.052;17.034;2024-03-29T06:58:42;99030.20;;;13.32;47.55
79004;BME280;77021;51.052;17.034;2024-03-29T07:05:08;99047.73;;;13.66;46.60
79004;BME280;77021;51.052;17.034;2024-03-29T07:07:57;99050.42;;;13.63;47.46
79004;BME280;77021;51.052;17.034;2024-03-29T07:10:45;99043.17;;;13.54;46.45
79004;BME280;77021;51.052;17.034;2024-03-29T07:13:32;99049.33;;;13.38;46.98
79004;BME280;77021;51.052;17.034;2024-03-29T07:16:19;99048.41;;;13.19;47.91
79004;BME280;77021;51.052;17.034;2024-03-29T07:19:05;99052.95;;;13.00;47.79
79004;BME280;77021;51.052;17.034;2024-03-29T07:21:52;99061.02;;;12.80;48.40
79004;BME280;77021;51.052;17.034;2024-03-29T07:24:40;99065.95;;;12.56;47.73
79004;BME280;77021;51.052;17.034;2024-03-29T07:27:26;99071.92;;;12.30;48.92
79004;BME280;77021;51.052;17.034;2024-03-29T07:30:18;99074.95;;;12.09;49.05
79004;BME280;77021;51.052;17.034;2024-03-29T07:33:06;99075.58;;;11.89;49.54
79004;BME280;77021;51.052;17.034;2024-03-29T07:35:53;99070.81;;;11.76;49.42
79004;BME280;77021;51.052;17.034;2024-03-29T07:38:40;99069.44;;;11.68;50.12
79004;BME280;77021;51.052;17.034;2024-03-29T07:41:27;99068.70;;;11.61;49.76
79004;BME280;77021;51.052;17.034;2024-03-29T07:44:13;99072.04;;;11.56;50.55
79004;BME280;77021;51.052;17.034;2024-03-29T07:47:00;99069.90;;;11.56;50.73
79004;BME280;77021;51.052;17.034;2024-03-29T07:49:46;99063.38;;;11.62;51.12
79004;BME280;77021;51.052;17.034;2024-03-29T07:52:33;99069.89;;;11.77;49.91
79004;BME280;77021;51.052;17.034;2024-03-29T07:55:20;99072.98;;;11.89;49.77
79004;BME280;77021;51.052;17.034;2024-03-29T07:58:06;99078.28;;;12.04;50.31
79004;BME280;77021;51.052;17.034;2024-03-29T08:00:57;99089.28;;;12.20;50.16
79004;BME280;77021;51.052;17.034;2024-03-29T08:03:43;99099.43;;;12.41;49.56
79004;BME280;77021;51.052;17.034;2024-03-29T08:06:36;99104.23;;;12.55;48.48
79004;BME280;77021;51.052;17.034;2024-03-29T08:09:23;99105.25;;;12.66;48.05
79004;BME280;77021;51.052;17.034;2024-03-29T08:12:09;99109.88;;;12.77;47.99
79004;BME280;77021;51.052;17.034;2024-03-29T08:14:57;99112.98;;;12.91;47.74
79004;BME280;77021;51.052;17.034;2024-03-29T08:17:44;99112.30;;;13.03;46.54
79004;BME280;77021;51.052;17.034;2024-03-29T08:20:31;99110.54;;;13.10;45.83
79004;BME280;77021;51.052;17.034;2024-03-29T08:23:18;99114.27;;;13.17;46.35
79004;BME280;77021;51.052;17.034;2024-03-29T08:26:04;99115.55;;;13.31;45.98
79004;BME280;77021;51.052;17.034;2024-03-29T08:28:51;99108.46;;;13.46;45.37
79004;BME280;77021;51.052;17.034;2024-03-29T08:31:37;99113.02;;;13.61;44.31
79004;BME280;77021;51.052;17.034;2024-03-29T08:34:23;99114.20;;;13.71;44.30
79004;BME280;77021;51.052;17.034;2024-03-29T08:37:10;99117.50;;;13.81;44.04
79004;BME280;77021;51.052;17.034;2024-03-29T08:39:56;99119.27;;;14.00;44.01
79004;BME280;77021;51.052;17.034;2024-03-29T08:42:43;99118.02;;;14.18;43.54
79004;BME280;77021;51.052;17.034;2024-03-29T08:45:29;99115.59;;;14.41;43.49
79004;BME280;77021;51.052;17.034;2024-03-29T08:48:15;99102.22;;;14.66;43.11
79004;BME280;77021;51.052;17.034;2024-03-29T08:51:02;99088.24;;;14.95;42.41
79004;BME280;77021;51.052;17.034;2024-03-29T08:53:48;99090.73;;;15.19;40.42
79004;BME280;77021;51.052;17.034;2024-03-29T08:56:34;99087.55;;;15.39;40.63
79004;BME280;77021;51.052;17.034;2024-03-29T08:59:25;99085.70;;;15.55;39.66
79004;BME280;77021;51.052;17.034;2024-03-29T09:02:11;99090.38;;;15.69;39.72
79004;BME280;77021;51.052;17.034;2024-03-29T09:04:59;99086.91;;;15.73;38.27
79004;BME280;77021;51.052;17.034;2024-03-29T09:07:45;99088.63;;;15.64;38.57
79004;BME280;77021;51.052;17.034;2024-03-29T09:10:37;99090.63;;;15.59;39.04
79004;BME280;77021;51.052;17.034;2024-03-29T09:13:23;99089.06;;;15.63;39.37
79004;BME280;77021;51.052;17.034;2024-03-29T09:16:10;99085.98;;;15.73;38.56
79004;BME280;77021;51.052;17.034;2024-03-29T09:19:10;99082.58;;;15.87;37.63
79004;BME280;77021;51.052;17.034;2024-03-29T09:21:58;99076.27;;;15.97;36.17
79004;BME280;77021;51.052;17.034;2024-03-29T09:24:44;99079.36;;;15.99;34.59
79004;BME280;77021;51.052;17.034;2024-03-29T09:27:31;99076.79;;;16.11;34.53
79004;BME280;77021;51.052;17.034;2024-03-29T09:30:26;99072.98;;;16.27;36.18
79004;BME280;77021;51.052;17.034;2024-03-29T09:33:13;99064.89;;;16.59;35.75
79004;BME280;77021;51.052;17.034;2024-03-29T09:35:59;99070.95;;;16.89;35.87
79004;BME280;77021;51.052;17.034;2024-03-29T09:38:45;99064.75;;;17.15;34.88
79004;BME280;77021;51.052;17.034;2024-03-29T09:41:32;99061.88;;;17.15;32.48
79004;BME280;77021;51.052;17.034;2024-03-29T09:44:25;99059.14;;;17.12;31.96
79004;BME280;77021;51.052;17.034;2024-03-29T09:47:35;99059.99;;;17.09;33.23
79004;BME280;77021;51.052;17.034;2024-03-29T09:50:26;99058.19;;;17.07;32.30
79004;BME280;77021;51.052;17.034;2024-03-29T09:53:12;99053.93;;;17.07;32.64
79004;BME280;77021;51.052;17.034;2024-03-29T09:55:59;99056.77;;;17.05;31.87
79004;BME280;77021;51.052;17.034;2024-03-29T09:58:46;99060.14;;;17.09;31.65
79004;BME280;77021;51.052;17.034;2024-03-29T10:01:34;99058.42;;;17.10;32.12
79004;BME280;77021;51.052;17.034;2024-03-29T10:04:27;99063.94;;;17.16;32.07
79004;BME280;77021;51.052;17.034;2024-03-29T10:07:15;99057.89;;;17.18;31.30
79004;BME280;77021;51.052;17.034;2024-03-29T10:10:02;99060.53;;;17.18;31.47
79004;BME280;77021;51.052;17.034;2024-03-29T10:12:49;99061.63;;;17.24;31.94
79004;BME280;77021;51.052;17.034;2024-03-29T10:15:35;99055.02;;;17.31;32.80
79004;BME280;77021;51.052;17.034;2024-03-29T10:18:31;99054.80;;;17.49;32.53
79004;BME280;77021;51.052;17.034;2024-03-29T10:21:17;99056.55;;;17.65;32.41
79004;BME280;77021;51.052;17.034;2024-03-29T10:24:13;99060.06;;;17.59;31.43
79004;BME280;77021;51.052;17.034;2024-03-29T10:27:00;99047.61;;;17.36;32.33
79004;BME280;77021;51.052;17.034;2024-03-29T10:29:46;99039.16;;;17.10;32.57
79004;BME280;77021;51.052;17.034;2024-03-29T10:32:40;99032.75;;;16.95;32.44
79004;BME280;77021;51.052;17.034;2024-03-29T10:35:26;99029.46;;;16.94;32.36
79004;BME280;77021;51.052;17.034;2024-03-29T10:38:25;99028.49;;;16.89;31.90
79004;BME280;77021;51.052;17.034;2024-03-29T10:41:16;99017.33;;;16.88;31.23
79004;BME280;77021;51.052;17.034;2024-03-29T10:44:10;99002.55;;;16.83;30.71
79004;BME280;77021;51.052;17.034;2024-03-29T10:47:03;98992.65;;;16.77;31.05
79004;BME280;77021;51.052;17.034;2024-03-29T10:49:52;98983.18;;;16.70;31.11
79004;BME280;77021;51.052;17.034;2024-03-29T10:52:40;98981.81;;;16.62;32.01
79004;BME280;77021;51.052;17.034;2024-03-29T10:55:32;98974.78;;;16.63;32.23
79004;BME280;77021;51.052;17.034;2024-03-29T10:58:22;98965.30;;;16.62;32.67
79004;BME280;77021;51.052;17.034;2024-03-29T11:01:15;98978.81;;;16.75;32.03
79004;BME280;77021;51.052;17.034;2024-03-29T11:04:20;98974.20;;;16.78;32.60
79004;BME280;77021;51.052;17.034;2024-03-29T11:07:14;98972.16;;;16.81;32.40
79004;BME280;77021;51.052;17.034;2024-03-29T11:10:02;98969.13;;;16.91;32.20
79004;BME280;77021;51.052;17.034;2024-03-29T11:15:50;98966.83;;;16.81;31.23
79004;BME280;77021;51.052;17.034;2024-03-29T11:18:37;98967.34;;;16.84;32.03
79004;BME280;77021;51.052;17.034;2024-03-29T11:21:31;98972.26;;;16.93;32.52
79004;BME280;77021;51.052;17.034;2024-03-29T11:24:22;98977.15;;;17.00;31.83
79004;BME280;77021;51.052;17.034;2024-03-29T11:27:09;98968.91;;;17.01;31.69
79004;BME280;77021;51.052;17.034;2024-03-29T11:29:56;98963.55;;;17.04;31.80
79004;BME280;77021;51.052;17.034;2024-03-29T11:32:42;98963.73;;;17.06;32.34
79004;BME280;77021;51.052;17.034;2024-03-29T11:35:47;98966.23;;;17.04;32.39
79004;BME280;77021;51.052;17.034;2024-03-29T11:38:35;98966.28;;;17.10;32.54
79004;BME280;77021;51.052;17.034;2024-03-29T11:41:23;98973.58;;;17.08;32.49
79004;BME280;77021;51.052;17.034;2024-03-29T11:44:09;98975.17;;;17.05;33.26
79004;BME280;77021;51.052;17.034;2024-03-29T11:46:59;98972.60;;;17.08;32.24
79004;BME280;77021;51.052;17.034;2024-03-29T11:49:54;98981.20;;;16.98;32.70
79004;BME280;77021;51.052;17.034;2024-03-29T11:52:43;98974.05;;;17.03;32.82
79004;BME280;77021;51.052;17.034;2024-03-29T11:55:29;98968.77;;;17.20;32.68
79004;BME280;77021;51.052;17.034;2024-03-29T11:58:15;98967.81;;;17.36;33.12
79004;BME280;77021;51.052;17.034;2024-03-29T12:01:02;98961.52;;;17.57;31.60
79004;BME280;77021;51.052;17.034;2024-03-29T12:03:48;98968.89;;;17.61;31.45
79004;BME280;77021;51.052;17.034;2024-03-29T12:06:37;98961.96;;;17.63;31.24
79004;BME280;77021;51.052;17.034;2024-03-29T12:09:23;98954.42;;;17.64;31.67
79004;BME280;77021;51.052;17.034;2024-03-29T12:12:09;98939.43;;;17.77;32.20
79004;BME280;77021;51.052;17.034;2024-03-29T12:14:58;98932.17;;;17.89;32.34
79004;BME280;77021;51.052;17.034;2024-03-29T12:17:59;98931.79;;;17.95;30.95
79004;BME280;77021;51.052;17.034;2024-03-29T12:20:50;98935.91;;;17.94;31.35
79004;BME280;77021;51.052;17.034;2024-03-29T12:23:37;98940.64;;;17.89;31.34
79004;BME280;77021;51.052;17.034;2024-03-29T12:26:24;98942.70;;;17.94;32.81
79004;BME280;77021;51.052;17.034;2024-03-29T12:29:13;98929.22;;;18.05;32.94
79004;BME280;77021;51.052;17.034;2024-03-29T12:32:00;98920.47;;;18.13;32.87
79004;BME280;77021;51.052;17.034;2024-03-29T12:34:47;98912.20;;;18.22;31.91
79004;BME280;77021;51.052;17.034;2024-03-29T12:37:33;98912.11;;;18.22;30.96
79004;BME280;77021;51.052;17.034;2024-03-29T12:40:19;98905.95;;;18.15;30.61
79004;BME280;77021;51.052;17.034;2024-03-29T12:43:20;98910.38;;;18.03;31.67
79004;BME280;77021;51.052;17.034;2024-03-29T12:46:08;98916.09;;;17.98;32.32
79004;BME280;77021;51.052;17.034;2024-03-29T12:49:00;98913.77;;;18.00;32.42
79004;BME280;77021;51.052;17.034;2024-03-29T12:51:46;98908.33;;;17.99;32.22
79004;BME280;77021;51.052;17.034;2024-03-29T12:54:40;98906.51;;;18.01;33.11
79004;BME280;77021;51.052;17.034;2024-03-29T12:57:27;98908.11;;;18.00;33.33
79004;BME280;77021;51.052;17.034;2024-03-29T13:00:16;98921.44;;;17.88;32.74
79004;BME280;77021;51.052;17.034;2024-03-29T13:03:02;98922.80;;;17.75;34.33
79004;BME280;77021;51.052;17.034;2024-03-29T13:05:49;98918.81;;;17.67;34.47
79004;BME280;77021;51.052;17.034;2024-03-29T13:08:37;98914.73;;;17.61;35.10
79004;BME280;77021;51.052;17.034;2024-03-29T13:11:23;98908.85;;;17.60;35.18
79004;BME280;77021;51.052;17.034;2024-03-29T13:14:13;98903.27;;;17.63;35.95
79004;BME280;77021;51.052;17.034;2024-03-29T13:16:59;98909.98;;;17.70;36.30
79004;BME280;77021;51.052;17.034;2024-03-29T13:19:46;98905.94;;;17.76;35.54
79004;BME280;77021;51.052;17.034;2024-03-29T13:22:32;98897.05;;;17.78;35.81
79004;BME280;77021;51.052;17.034;2024-03-29T13:25:22;98889.42;;;17.80;36.11
79004;BME280;77021;51.052;17.034;2024-03-29T13:28:09;98889.02;;;17.81;35.87
79004;BME280;77021;51.052;17.034;2024-03-29T13:30:59;98887.42;;;17.81;35.91
79004;BME280;77021;51.052;17.034;2024-03-29T13:33:45;98894.89;;;17.84;36.09
79004;BME280;77021;51.052;17.034;2024-03-29T13:36:31;98892.89;;;17.90;34.42
79004;BME280;77021;51.052;17.034;2024-03-29T13:39:17;98892.02;;;17.96;34.22
79004;BME280;77021;51.052;17.034;2024-03-29T13:42:04;98891.70;;;17.99;33.72
79004;BME280;77021;51.052;17.034;2024-03-29T13:44:51;98891.41;;;18.00;32.79
79004;BME280;77021;51.052;17.034;2024-03-29T13:47:44;98892.73;;;18.03;33.52
79004;BME280;77021;51.052;17.034;2024-03-29T13:50:33;98894.02;;;18.06;33.65
79004;BME280;77021;51.052;17.034;2024-03-29T13:53:19;98893.82;;;18.12;34.01
79004;BME280;77021;51.052;17.034;2024-03-29T13:56:06;98893.40;;;18.16;33.61
79004;BME280;77021;51.052;17.034;2024-03-29T13:58:52;98889.27;;;18.15;33.82
79004;BME280;77021;51.052;17.034;2024-03-29T14:01:38;98890.73;;;18.13;33.87
79004;BME280;77021;51.052;17.034;2024-03-29T14:04:24;98900.70;;;18.12;33.38
79004;BME280;77021;51.052;17.034;2024-03-29T14:07:13;98902.58;;;18.11;33.30
79004;BME280;77021;51.052;17.034;2024-03-29T14:10:00;98900.04;;;18.10;32.14
79004;BME280;77021;51.052;17.034;2024-03-29T14:12:53;98895.48;;;18.06;32.69
79004;BME280;77021;51.052;17.034;2024-03-29T14:15:41;98889.36;;;18.04;32.71
79004;BME280;77021;51.052;17.034;2024-03-29T14:18:27;98896.36;;;18.06;33.36
79004;BME280;77021;51.052;17.034;2024-03-29T14:21:16;98894.33;;;18.07;33.80
79004;BME280;77021;51.052;17.034;2024-03-29T14:24:03;98883.75;;;18.10;33.41
79004;BME280;77021;51.052;17.034;2024-03-29T14:26:51;98880.31;;;18.11;33.50
79004;BME280;77021;51.052;17.034;2024-03-29T14:29:38;98872.13;;;18.09;33.40
79004;BME280;77021;51.052;17.034;2024-03-29T14:32:25;98867.58;;;18.09;32.89
79004;BME280;77021;51.052;17.034;2024-03-29T14:35:13;98860.86;;;18.09;32.99
79004;BME280;77021;51.052;17.034;2024-03-29T14:38:03;98853.44;;;18.09;32.73
79004;BME280;77021;51.052;17.034;2024-03-29T14:40:50;98853.70;;;18.09;33.34
79004;BME280;77021;51.052;17.034;2024-03-29T14:43:36;98858.72;;;18.07;33.40
79004;BME280;77021;51.052;17.034;2024-03-29T15:10:39;98851.36;;;18.02;33.57
79004;BME280;77021;51.052;17.034;2024-03-29T15:13:26;98846.70;;;17.96;34.10
79004;BME280;77021;51.052;17.034;2024-03-29T15:16:13;98848.70;;;17.82;34.16
79004;BME280;77021;51.052;17.034;2024-03-29T15:19:00;98849.09;;;17.66;34.52
79004;BME280;77021;51.052;17.034;2024-03-29T15:21:46;98842.15;;;17.49;34.50
79004;BME280;77021;51.052;17.034;2024-03-29T15:24:35;98842.13;;;17.39;35.23
79004;BME280;77021;51.052;17.034;2024-03-29T15:27:30;98834.17;;;17.35;36.27
79004;BME280;77021;51.052;17.034;2024-03-29T15:30:35;98836.09;;;17.34;36.87
79004;BME280;77021;51.052;17.034;2024-03-29T15:33:28;98842.65;;;17.34;37.31
79004;BME280;77021;51.052;17.034;2024-03-29T15:36:14;98840.45;;;17.31;37.43
79004;BME280;77021;51.052;17.034;2024-03-29T15:39:03;98831.71;;;17.30;37.29
79004;BME280;77021;51.052;17.034;2024-03-29T15:41:51;98825.80;;;17.27;36.92
79004;BME280;77021;51.052;17.034;2024-03-29T15:44:40;98828.64;;;17.23;36.45
79004;BME280;77021;51.052;17.034;2024-03-29T15:47:27;98828.92;;;17.18;37.05
79004;BME280;77021;51.052;17.034;2024-03-29T15:50:13;98829.28;;;17.16;37.81